createdAt,value
2022-08-02T00:00:36.106Z,14.21
2022-08-02T00:03:03.292Z,14.21
2022-08-02T00:05:30.506Z,14.19
2022-08-02T00:07:57.550Z,14.15
2022-08-02T00:10:26.081Z,14.08
2022-08-02T00:12:53.867Z,14.10
2022-08-02T00:15:22.777Z,14.08
2022-08-02T00:17:51.404Z,14.04
2022-08-02T00:20:18.463Z,14.03
2022-08-02T00:22:45.529Z,14.01
2022-08-02T00:25:12.661Z,13.98
2022-08-02T00:27:39.678Z,13.86
2022-08-02T00:30:07.457Z,13.89
2022-08-02T00:32:35.021Z,13.85
2022-08-02T00:35:02.143Z,13.84
2022-08-02T00:37:29.185Z,13.83
2022-08-02T00:39:59.483Z,13.79
2022-08-02T00:42:27.522Z,13.75
2022-08-02T00:44:55.253Z,13.77
2022-08-02T00:47:23.001Z,13.77
2022-08-02T00:49:50.397Z,13.74
2022-08-02T00:52:17.419Z,13.64
2022-08-02T00:54:44.492Z,13.56
2022-08-02T00:57:11.799Z,13.53
2022-08-02T00:59:38.891Z,13.53
2022-08-02T01:02:06.016Z,13.50
2022-08-02T01:04:34.339Z,13.47
2022-08-02T01:07:12.083Z,13.42
2022-08-02T01:09:42.431Z,13.39
2022-08-02T01:12:10.883Z,13.34
2022-08-02T01:14:40.592Z,13.31
2022-08-02T01:17:26.993Z,13.25
2022-08-02T01:20:04.462Z,13.22
2022-08-02T01:23:11.965Z,13.24
2022-08-02T01:25:47.869Z,13.25
2022-08-02T01:28:41.032Z,13.25
2022-08-02T01:31:30.063Z,13.25
2022-08-02T01:34:04.446Z,13.24
2022-08-02T01:36:40.277Z,13.20
2022-08-02T01:39:12.306Z,13.14
2022-08-02T01:41:59.112Z,13.18
2022-08-02T01:44:30.447Z,13.19
2022-08-02T01:47:02.034Z,13.22
2022-08-02T01:49:32.733Z,13.16
2022-08-02T01:52:21.722Z,13.22
2022-08-02T01:55:07.203Z,13.24
2022-08-02T01:57:42.095Z,13.22
2022-08-02T02:00:11.423Z,13.22
2022-08-02T02:02:42.185Z,13.27
2022-08-02T02:05:15.453Z,13.28
2022-08-02T02:07:44.527Z,13.30
2022-08-02T02:10:16.719Z,13.28
2022-08-02T02:12:46.660Z,13.34
2022-08-02T02:15:14.329Z,13.35
2022-08-02T02:18:10.566Z,13.39
2022-08-02T02:20:32.440Z,13.40
2022-08-02T02:22:59.781Z,13.43
2022-08-02T02:25:34.271Z,13.40
2022-08-02T02:28:14.121Z,13.48
2022-08-02T02:30:47.424Z,13.42
2022-08-02T02:33:18.126Z,13.41
2022-08-02T02:35:47.741Z,13.34
2022-08-02T02:38:19.614Z,13.29
2022-08-02T02:40:47.807Z,13.30
2022-08-02T02:43:17.220Z,13.28
2022-08-02T02:45:45.236Z,13.22
2022-08-02T02:48:14.606Z,13.19
2022-08-02T02:50:43.909Z,13.18
2022-08-02T02:53:13.887Z,13.19
2022-08-02T02:55:42.099Z,13.19
2022-08-02T02:58:29.815Z,13.13
2022-08-02T03:01:16.562Z,13.14
2022-08-02T03:03:44.859Z,13.12
2022-08-02T03:06:15.634Z,13.13
2022-08-02T03:08:43.377Z,13.11
2022-08-02T03:11:11.472Z,13.23
2022-08-02T03:13:39.682Z,13.35
2022-08-02T03:16:07.472Z,13.44
2022-08-02T03:18:40.713Z,13.47
2022-08-02T03:21:11.847Z,13.49
2022-08-02T03:23:42.258Z,13.47
2022-08-02T03:26:10.290Z,13.44
2022-08-02T03:28:37.503Z,13.43
2022-08-02T03:31:05.740Z,13.34
2022-08-02T03:33:34.507Z,13.38
2022-08-02T03:36:06.861Z,13.38
2022-08-02T03:38:36.356Z,13.33
2022-08-02T03:41:05.555Z,13.32
2022-08-02T03:43:34.354Z,13.32
2022-08-02T03:46:04.544Z,13.29
2022-08-02T03:48:36.256Z,13.29
2022-08-02T03:51:04.527Z,13.28
2022-08-02T03:53:32.025Z,13.18
2022-08-02T03:56:00.011Z,13.23
2022-08-02T03:58:27.410Z,13.27
2022-08-02T04:00:57.948Z,13.29
2022-08-02T04:03:28.171Z,13.36
2022-08-02T04:06:01.061Z,13.41
2022-08-02T04:08:37.986Z,13.45
2022-08-02T04:11:32.543Z,13.50
2022-08-02T04:14:01.840Z,13.56
2022-08-02T04:16:38.076Z,13.57
2022-08-02T04:19:09.106Z,13.55
2022-08-02T04:21:51.675Z,13.56
2022-08-02T04:24:32.003Z,13.54
2022-08-02T04:27:19.415Z,13.53
2022-08-02T04:29:49.829Z,13.54
2022-08-02T04:32:17.399Z,13.58
2022-08-02T04:35:11.262Z,13.61
2022-08-02T04:37:34.494Z,13.61
2022-08-02T04:40:01.686Z,13.68
2022-08-02T04:42:28.843Z,13.71
2022-08-02T04:44:58.475Z,13.76
2022-08-02T04:48:02.627Z,13.80
2022-08-02T04:50:14.642Z,13.83
2022-08-02T04:52:45.683Z,13.85
2022-08-02T04:55:13.020Z,13.84
2022-08-02T04:57:56.229Z,13.82
2022-08-02T05:00:25.440Z,13.85
2022-08-02T05:02:52.669Z,13.83
2022-08-02T05:05:20.989Z,13.82
2022-08-02T05:07:48.340Z,13.76
2022-08-02T05:10:15.411Z,13.84
2022-08-02T05:12:42.722Z,13.82
2022-08-02T05:15:12.969Z,13.89
2022-08-02T05:17:47.983Z,13.88
2022-08-02T05:20:17.708Z,13.93
2022-08-02T05:22:44.925Z,13.92
2022-08-02T05:25:12.293Z,14.05
2022-08-02T05:27:39.354Z,14.13
2022-08-02T05:30:07.594Z,14.17
2022-08-02T05:32:49.648Z,14.28
2022-08-02T05:35:25.274Z,14.38
2022-08-02T05:37:52.340Z,14.47
2022-08-02T05:40:25.884Z,14.57
2022-08-02T05:42:53.650Z,14.66
2022-08-02T05:45:23.988Z,14.79
2022-08-02T05:47:52.055Z,14.88
2022-08-02T05:50:19.837Z,14.96
2022-08-02T05:52:51.026Z,15.12
2022-08-02T05:55:26.399Z,15.18
2022-08-02T05:58:09.725Z,15.38
2022-08-02T06:00:39.778Z,15.48
2022-08-02T06:03:26.563Z,15.57
2022-08-02T06:06:05.505Z,15.67
2022-08-02T06:08:47.636Z,15.79
2022-08-02T06:11:22.003Z,15.87
2022-08-02T06:13:50.655Z,15.97
2022-08-02T06:16:32.097Z,16.08
2022-08-02T06:19:00.922Z,16.23
2022-08-02T06:22:42.028Z,16.37
2022-08-02T06:24:22.959Z,16.50
2022-08-02T06:26:57.336Z,16.61
2022-08-02T06:29:27.373Z,16.72
2022-08-02T06:31:56.103Z,16.79
2022-08-02T06:34:23.424Z,16.91
2022-08-02T06:37:15.841Z,17.03
2022-08-02T06:39:49.808Z,17.19
2022-08-02T06:42:50.915Z,17.35
2022-08-02T06:45:19.773Z,17.52
2022-08-02T06:47:46.875Z,17.65
2022-08-02T06:50:14.001Z,17.84
2022-08-02T06:52:41.286Z,17.97
2022-08-02T06:55:08.888Z,18.13
2022-08-02T06:57:36.066Z,18.25
2022-08-02T07:00:09.529Z,18.41
2022-08-02T07:02:37.119Z,18.54
2022-08-02T07:05:05.818Z,18.66
2022-08-02T07:07:33.326Z,18.74
2022-08-02T07:10:01.907Z,18.86
2022-08-02T07:12:30.952Z,18.96
2022-08-02T07:14:59.810Z,19.07
2022-08-02T07:17:27.503Z,19.27
2022-08-02T07:19:57.105Z,19.39
2022-08-02T07:22:26.935Z,19.48
2022-08-02T07:24:59.262Z,19.56
2022-08-02T07:27:28.108Z,19.57
2022-08-02T07:29:57.832Z,19.60
2022-08-02T07:32:28.112Z,19.67
2022-08-02T07:34:57.742Z,19.78
2022-08-02T07:37:51.092Z,19.83
2022-08-02T07:40:19.837Z,19.87
2022-08-02T07:42:56.464Z,19.87
2022-08-02T07:45:28.001Z,19.85
2022-08-02T07:47:57.038Z,19.89
2022-08-02T07:50:26.760Z,19.93
2022-08-02T07:52:57.715Z,20.09
2022-08-02T07:55:39.726Z,20.20
2022-08-02T07:58:12.870Z,20.42
2022-08-02T08:00:43.244Z,20.59
2022-08-02T08:03:10.592Z,20.74
2022-08-02T08:05:37.643Z,20.83
2022-08-02T08:08:08.818Z,20.97
2022-08-02T08:10:37.211Z,21.15
2022-08-02T08:13:07.189Z,21.23
2022-08-02T08:15:37.158Z,21.41
2022-08-02T08:18:05.770Z,21.55
2022-08-02T08:20:33.135Z,21.69
2022-08-02T08:23:00.352Z,21.78
2022-08-02T08:25:27.705Z,21.79
2022-08-02T08:27:57.632Z,21.76
2022-08-02T08:30:25.838Z,21.75
2022-08-02T08:32:52.968Z,21.74
2022-08-02T08:35:23.397Z,21.80
2022-08-02T08:37:50.829Z,21.86
2022-08-02T08:40:21.256Z,21.99
2022-08-02T08:42:48.448Z,22.02
2022-08-02T08:45:17.827Z,22.06
2022-08-02T08:48:06.324Z,22.22
2022-08-02T08:50:39.530Z,22.19
2022-08-02T08:53:08.676Z,21.96
2022-08-02T08:55:39.315Z,21.87
2022-08-02T08:58:06.543Z,22.01
2022-08-02T09:00:38.047Z,22.19
2022-08-02T09:03:08.461Z,22.28
2022-08-02T09:05:39.647Z,22.40
2022-08-02T09:08:07.394Z,22.28
2022-08-02T09:10:54.383Z,22.39
2022-08-02T09:13:45.299Z,22.47
2022-08-02T09:16:14.409Z,22.65
2022-08-02T09:18:47.631Z,22.85
2022-08-02T09:21:16.900Z,22.96
2022-08-02T09:23:52.715Z,23.07
2022-08-02T09:26:22.478Z,23.25
2022-08-02T09:28:52.225Z,23.26
2022-08-02T09:31:23.775Z,23.42
2022-08-02T09:33:57.353Z,23.27
2022-08-02T09:36:27.044Z,23.15
2022-08-02T09:39:06.417Z,23.28
2022-08-02T09:41:41.215Z,23.50
2022-08-02T09:44:16.853Z,23.45
2022-08-02T09:46:46.172Z,23.61
2022-08-02T09:49:18.571Z,23.74
2022-08-02T09:51:46.677Z,23.76
2022-08-02T09:54:23.727Z,23.66
2022-08-02T09:56:57.068Z,23.66
2022-08-02T09:59:26.657Z,23.68
2022-08-02T10:02:01.430Z,23.93
2022-08-02T10:04:34.509Z,23.88
2022-08-02T10:07:21.745Z,24.14
2022-08-02T10:09:52.055Z,24.41
2022-08-02T10:12:23.020Z,24.38
2022-08-02T10:14:56.128Z,24.49
2022-08-02T10:17:27.547Z,24.02
2022-08-02T10:20:02.332Z,24.10
2022-08-02T10:22:36.305Z,24.01
2022-08-02T10:25:08.975Z,23.83
2022-08-02T10:27:55.445Z,23.80
2022-08-02T10:30:27.361Z,23.95
2022-08-02T10:32:57.065Z,23.99
2022-08-02T10:35:26.894Z,24.21
2022-08-02T10:38:01.051Z,24.36
2022-08-02T10:40:56.090Z,24.50
2022-08-02T10:43:32.084Z,24.50
2022-08-02T10:46:21.982Z,24.77
2022-08-02T10:49:18.429Z,24.90
2022-08-02T10:51:52.068Z,25.03
2022-08-02T10:54:20.886Z,24.96
2022-08-02T10:56:50.744Z,24.89
2022-08-02T10:59:26.837Z,24.81
2022-08-02T11:02:02.365Z,24.74
2022-08-02T11:04:41.504Z,24.78
2022-08-02T11:07:18.442Z,24.83
2022-08-02T11:09:47.614Z,24.88
2022-08-02T11:12:17.643Z,25.24
2022-08-02T11:14:58.220Z,25.53
2022-08-02T11:17:28.790Z,25.68
2022-08-02T11:20:11.129Z,25.34
2022-08-02T11:22:42.735Z,25.37
2022-08-02T11:25:29.704Z,25.34
2022-08-02T11:28:11.053Z,25.47
2022-08-02T11:30:39.201Z,25.48
2022-08-02T11:33:06.802Z,25.59
2022-08-02T11:35:39.988Z,26.06
2022-08-02T11:38:16.177Z,26.36
2022-08-02T11:40:45.042Z,26.62
2022-08-02T11:43:23.482Z,26.49
2022-08-02T11:45:52.502Z,26.72
2022-08-02T11:48:35.759Z,26.84
2022-08-02T11:51:10.768Z,26.69
2022-08-02T11:53:45.933Z,26.70
2022-08-02T11:56:14.324Z,26.42
2022-08-02T11:59:08.871Z,26.16
2022-08-02T12:01:46.303Z,26.36
2022-08-02T12:04:22.923Z,26.83
2022-08-02T12:06:59.867Z,27.11
2022-08-02T12:09:29.618Z,27.37
2022-08-02T12:11:59.155Z,27.58
2022-08-02T12:14:28.979Z,27.77
2022-08-02T12:17:18.408Z,27.76
2022-08-02T12:19:45.700Z,28.32
2022-08-02T12:22:13.141Z,28.54
2022-08-02T12:24:44.799Z,28.73
2022-08-02T12:27:38.079Z,29.31
2022-08-02T12:30:13.627Z,29.02
2022-08-02T12:32:41.354Z,29.14
2022-08-02T12:35:26.868Z,29.06
2022-08-02T12:37:56.155Z,28.55
2022-08-02T12:40:27.339Z,28.02
2022-08-02T12:43:05.087Z,27.77
2022-08-02T12:45:48.869Z,27.91
2022-08-02T12:48:36.687Z,28.15
2022-08-02T12:51:22.610Z,28.95
2022-08-02T12:53:59.862Z,29.51
2022-08-02T12:56:29.572Z,29.53
2022-08-02T12:58:57.758Z,29.61
2022-08-02T13:01:27.671Z,29.81
2022-08-02T13:04:09.182Z,30.39
2022-08-02T13:06:43.996Z,31.01
2022-08-02T13:09:17.134Z,31.69
2022-08-02T13:11:44.976Z,31.42
2022-08-02T13:14:13.920Z,31.44
2022-08-02T13:16:42.392Z,31.82
2022-08-02T13:19:09.590Z,31.84
2022-08-02T13:21:41.553Z,32.67
2022-08-02T13:24:40.030Z,31.92
2022-08-02T13:27:09.173Z,31.12
2022-08-02T13:29:37.864Z,31.16
2022-08-02T13:32:07.998Z,30.33
2022-08-02T13:34:36.127Z,29.52
2022-08-02T13:37:04.813Z,29.63
2022-08-02T13:39:31.897Z,30.30
2022-08-02T13:41:58.960Z,30.64
2022-08-02T13:44:28.776Z,31.14
2022-08-02T13:46:57.560Z,31.88
2022-08-02T13:49:50.970Z,32.63
2022-08-02T13:52:13.143Z,33.11
2022-08-02T13:54:40.551Z,31.98
2022-08-02T13:57:07.687Z,31.59
2022-08-02T13:59:57.227Z,30.86
2022-08-02T14:02:27.902Z,31.30
2022-08-02T14:04:58.552Z,31.80
2022-08-02T14:07:28.657Z,32.31
2022-08-02T14:09:57.398Z,32.24
2022-08-02T14:12:24.508Z,32.67
2022-08-02T14:14:52.533Z,32.55
2022-08-02T14:17:21.611Z,31.63
2022-08-02T14:19:50.869Z,31.74
2022-08-02T14:22:17.956Z,31.19
2022-08-02T14:24:45.261Z,31.09
2022-08-02T14:27:12.505Z,31.98
2022-08-02T14:29:39.659Z,31.84
2022-08-02T14:32:07.124Z,32.26
2022-08-02T14:34:34.677Z,31.81
2022-08-02T14:37:01.899Z,31.62
2022-08-02T14:39:43.589Z,31.40
2022-08-02T14:42:16.448Z,31.55
2022-08-02T14:44:43.861Z,32.15
2022-08-02T14:47:11.002Z,32.05
2022-08-02T14:49:41.510Z,32.88
2022-08-02T14:52:10.418Z,32.26
2022-08-02T14:54:37.748Z,31.24
2022-08-02T14:57:08.044Z,30.18
2022-08-02T14:59:35.752Z,30.35
2022-08-02T15:02:11.844Z,30.23
2022-08-02T15:04:42.966Z,31.37
2022-08-02T15:07:11.124Z,32.02
2022-08-02T15:09:39.887Z,31.50
2022-08-02T15:12:08.712Z,30.76
2022-08-02T15:14:36.514Z,30.49
2022-08-02T15:17:04.578Z,30.45
2022-08-02T15:19:56.156Z,31.23
2022-08-02T15:22:20.086Z,31.85
2022-08-02T15:24:48.054Z,31.54
2022-08-02T15:27:15.975Z,30.46
2022-08-02T15:29:44.453Z,30.37
2022-08-02T15:32:13.204Z,31.04
2022-08-02T15:34:40.574Z,31.24
2022-08-02T15:37:07.947Z,31.20
2022-08-02T15:39:38.429Z,30.63
2022-08-02T15:42:08.343Z,29.89
2022-08-02T15:44:38.664Z,30.14
2022-08-02T15:47:06.825Z,30.52
2022-08-02T15:49:38.105Z,31.03
2022-08-02T15:52:07.903Z,31.23
2022-08-02T15:54:37.790Z,30.72
2022-08-02T15:57:06.150Z,30.47
2022-08-02T15:59:33.284Z,30.60
2022-08-02T16:02:00.618Z,30.13
2022-08-02T16:04:27.792Z,30.09
2022-08-02T16:06:56.158Z,30.27
2022-08-02T16:09:23.366Z,30.51
2022-08-02T16:11:51.072Z,31.03
2022-08-02T16:14:18.172Z,31.07
2022-08-02T16:16:45.363Z,30.67
2022-08-02T16:19:47.516Z,30.81
2022-08-02T16:21:59.402Z,31.08
2022-08-02T16:24:26.971Z,30.63
2022-08-02T16:26:54.366Z,29.94
2022-08-02T16:29:21.903Z,29.30
2022-08-02T16:31:51.487Z,28.93
2022-08-02T16:34:19.747Z,29.16
2022-08-02T16:36:46.883Z,29.61
2022-08-02T16:39:14.082Z,30.43
2022-08-02T16:41:51.370Z,31.04
2022-08-02T16:44:27.556Z,31.24
2022-08-02T16:47:00.843Z,30.69
2022-08-02T16:50:07.259Z,29.31
2022-08-02T16:52:18.978Z,29.16
2022-08-02T16:54:49.873Z,28.89
2022-08-02T16:57:21.027Z,28.72
2022-08-02T16:59:57.920Z,28.89
2022-08-02T17:02:28.003Z,29.24
2022-08-02T17:04:58.768Z,29.84
2022-08-02T17:08:15.238Z,29.46
2022-08-02T17:10:18.895Z,28.97
2022-08-02T17:12:47.051Z,28.82
2022-08-02T17:15:47.041Z,28.40
2022-08-02T17:18:06.090Z,28.15
2022-08-02T17:20:36.324Z,27.58
2022-08-02T17:23:05.692Z,27.45
2022-08-02T17:25:32.791Z,27.36
2022-08-02T17:27:59.902Z,27.27
2022-08-02T17:30:28.253Z,27.08
2022-08-02T17:32:57.843Z,26.91
2022-08-02T17:35:43.875Z,26.80
2022-08-02T17:38:18.136Z,26.69
2022-08-02T17:41:00.422Z,26.70
2022-08-02T17:43:31.790Z,26.74
2022-08-02T17:46:02.478Z,26.78
2022-08-02T17:48:55.109Z,26.51
2022-08-02T17:52:16.019Z,26.31
2022-08-02T17:54:11.825Z,26.27
2022-08-02T17:56:42.650Z,26.20
2022-08-02T17:59:20.769Z,26.16
2022-08-02T18:01:56.164Z,26.10
2022-08-02T18:04:27.601Z,26.15
2022-08-02T18:07:03.907Z,26.07
2022-08-02T18:09:32.032Z,26.10
2022-08-02T18:11:59.205Z,26.06
2022-08-02T18:14:27.728Z,26.03
2022-08-02T18:16:56.888Z,25.94
2022-08-02T18:19:42.659Z,25.91
2022-08-02T18:22:17.839Z,25.85
2022-08-02T18:24:52.639Z,25.76
2022-08-02T18:27:22.482Z,25.74
2022-08-02T18:30:00.393Z,25.72
2022-08-02T18:33:57.002Z,25.55
2022-08-02T18:35:25.885Z,25.42
2022-08-02T18:38:03.566Z,25.37
2022-08-02T18:40:31.784Z,25.28
2022-08-02T18:42:59.135Z,25.25
2022-08-02T18:45:36.888Z,25.26
2022-08-02T18:48:17.651Z,25.21
2022-08-02T18:50:44.845Z,25.12
2022-08-02T18:53:14.262Z,24.93
2022-08-02T18:56:02.895Z,24.79
2022-08-02T18:58:31.064Z,24.67
2022-08-02T19:01:00.798Z,24.45
2022-08-02T19:03:49.359Z,24.28
2022-08-02T19:06:19.705Z,24.18
2022-08-02T19:09:05.250Z,24.05
2022-08-02T19:11:38.669Z,23.87
2022-08-02T19:14:08.415Z,23.70
2022-08-02T19:16:38.396Z,23.66
2022-08-02T19:19:08.939Z,23.55
2022-08-02T19:22:17.777Z,23.49
2022-08-02T19:24:23.526Z,23.44
2022-08-02T19:26:53.689Z,23.42
2022-08-02T19:29:25.092Z,23.37
2022-08-02T19:32:42.032Z,23.30
2022-08-02T19:35:01.978Z,23.20
2022-08-02T19:37:36.970Z,23.15
2022-08-02T19:40:07.902Z,23.10
2022-08-02T19:44:21.766Z,23.05
2022-08-02T19:45:45.078Z,23.01
2022-08-02T19:48:14.874Z,22.99
2022-08-02T19:50:44.192Z,22.91
2022-08-02T19:53:17.439Z,22.85
2022-08-02T19:56:00.260Z,22.87
2022-08-02T19:58:30.412Z,22.80
2022-08-02T20:00:58.239Z,22.82
2022-08-02T20:03:52.135Z,22.76
2022-08-02T20:06:14.801Z,22.70
2022-08-02T20:08:53.438Z,22.68
2022-08-02T20:11:24.640Z,22.65
2022-08-02T20:13:53.411Z,22.60
2022-08-02T20:16:27.946Z,22.66
2022-08-02T20:18:57.405Z,22.68
2022-08-02T20:21:35.824Z,22.66
2022-08-02T20:24:09.321Z,22.73
2022-08-02T20:29:43.045Z,22.72
2022-08-02T20:32:12.710Z,22.61
2022-08-02T20:34:40.089Z,22.66
2022-08-02T20:37:59.926Z,22.64
2022-08-02T20:39:56.822Z,22.60
2022-08-02T20:42:24.722Z,22.59
2022-08-02T20:44:57.399Z,22.55
2022-08-02T20:47:39.586Z,22.52
2022-08-02T20:50:31.561Z,22.48
2022-08-02T20:53:00.591Z,22.41
2022-08-02T20:55:31.212Z,22.35
2022-08-02T20:58:18.512Z,22.30
2022-08-02T21:00:47.701Z,22.28
2022-08-02T21:03:16.191Z,22.22
2022-08-02T21:05:54.658Z,22.16
2022-08-02T21:08:24.211Z,22.12
2022-08-02T21:10:53.113Z,22.03
2022-08-02T21:13:24.367Z,21.97
2022-08-02T21:15:58.860Z,21.93
2022-08-02T21:18:38.356Z,21.90
2022-08-02T21:21:09.701Z,21.84
2022-08-02T21:23:37.652Z,21.80
2022-08-02T21:26:09.081Z,21.77
2022-08-02T21:28:43.895Z,21.73
2022-08-02T21:31:15.524Z,21.67
2022-08-02T21:33:57.724Z,21.62
2022-08-02T21:36:30.997Z,21.58
2022-08-02T21:39:09.052Z,21.55
2022-08-02T21:41:39.800Z,21.50
2022-08-02T21:44:18.576Z,21.45
2022-08-02T21:46:46.752Z,21.48
2022-08-02T21:49:18.787Z,21.47
2022-08-02T21:51:49.520Z,21.41
2022-08-02T21:57:15.631Z,21.31
2022-08-02T21:59:45.925Z,21.27
2022-08-02T22:02:15.264Z,21.24
2022-08-02T22:04:47.424Z,21.16
2022-08-02T22:07:17.565Z,21.15
2022-08-02T22:09:52.698Z,21.11
2022-08-02T22:12:20.508Z,21.06
2022-08-02T22:14:54.560Z,20.98
2022-08-02T22:17:51.686Z,20.94
2022-08-02T22:20:18.318Z,20.91
2022-08-02T22:22:50.123Z,20.88
2022-08-02T22:25:27.185Z,20.83
2022-08-02T22:28:36.586Z,20.79
2022-08-02T22:30:58.142Z,20.75
2022-08-02T22:33:59.869Z,20.71
2022-08-02T22:36:30.943Z,20.59
2022-08-02T22:38:58.967Z,20.59
2022-08-02T22:42:00.233Z,20.60
2022-08-02T22:44:15.056Z,20.59
2022-08-02T22:46:46.186Z,20.57
2022-08-02T22:49:36.838Z,20.53
2022-08-02T22:52:00.383Z,20.51
2022-08-02T22:54:27.443Z,20.45
2022-08-02T22:56:56.037Z,20.40
2022-08-02T22:59:03.801Z,21.36
2022-08-02T22:59:07.211Z,22.73
2022-08-02T22:59:35.978Z,20.37
2022-08-02T23:02:08.169Z,20.38
2022-08-02T23:04:36.733Z,20.35
2022-08-02T23:07:06.997Z,20.32
2022-08-02T23:09:36.660Z,20.22
2022-08-02T23:12:04.941Z,20.24
2022-08-02T23:14:31.993Z,20.22
2022-08-02T23:17:18.745Z,20.17
2022-08-02T23:19:51.806Z,20.17
2022-08-02T23:22:29.807Z,20.11
2022-08-02T23:25:00.734Z,20.04
2022-08-02T23:27:29.093Z,20.03
2022-08-02T23:30:00.393Z,20.02
2022-08-02T23:32:28.031Z,19.98
2022-08-02T23:34:57.882Z,19.96
2022-08-02T23:37:26.156Z,19.91
2022-08-02T23:39:53.340Z,19.86
2022-08-02T23:42:23.258Z,19.88
2022-08-02T23:44:56.517Z,19.83
2022-08-02T23:47:23.661Z,19.84
2022-08-02T23:49:51.789Z,19.82
2022-08-02T23:52:19.189Z,19.76
2022-08-02T23:54:47.107Z,19.80
2022-08-02T23:57:20.921Z,19.71
2022-08-02T23:59:51.676Z,19.73
